Time;durP1;ratioP1;P1;durP2;ratioP2;P2;SDS_P1;SDS_P2;PMS_P1;PMS_P2;Temp;Humidity;BMP_temperature;BMP_pressure;BME280_temperature;BME280_humidity;BME280_pressure;Samples;Min_cycle;Max_cycle;Signal;HPM_P1;HPM_P2
2023/05/01 00:00:34;;;;;;;12.45;4.50;;;;;;;13.98;39.88;101789.22;4969387;28;96788;-73
2023/05/01 00:03:00;;;;;;;7.05;3.65;;;;;;;14.55;39.89;101787.25;4969324;28;99508;-73
2023/05/01 00:05:27;;;;;;;6.10;3.83;;;;;;;14.23;40.33;101793.66;4969036;28;100557;-73
2023/05/01 00:07:53;;;;;;;11.27;4.38;;;;;;;14.28;39.51;101789.06;4973321;28;96751;-73
2023/05/01 00:10:21;;;;;;;11.27;4.50;;;;;;;14.57;39.12;101790.72;4972925;28;97981;-74
2023/05/01 00:12:47;;;;;;;9.75;3.78;;;;;;;14.71;38.30;101798.19;4966711;28;101920;-75
2023/05/01 00:15:14;;;;;;;8.55;3.90;;;;;;;14.56;38.64;101789.00;4962156;28;102299;-74
2023/05/01 00:17:40;;;;;;;7.57;3.65;;;;;;;14.69;38.60;101787.63;4966908;28;96820;-75
2023/05/01 00:20:08;;;;;;;9.82;4.22;;;;;;;14.70;38.38;101794.66;4969142;28;96989;-75
2023/05/01 00:22:34;;;;;;;13.68;5.60;;;;;;;14.62;38.42;101794.09;4965794;28;99159;-75
2023/05/01 00:25:01;;;;;;;10.15;4.30;;;;;;;14.57;38.54;101796.03;4966894;28;98689;-74
2023/05/01 00:27:28;;;;;;;10.18;4.40;;;;;;;14.55;38.61;101787.25;4974749;28;97104;-74
2023/05/01 00:29:55;;;;;;;12.65;4.50;;;;;;;14.41;39.48;101792.19;4970518;28;98686;-74
2023/05/01 00:32:21;;;;;;;9.82;4.28;;;;;;;14.46;39.25;101784.03;4967744;28;99061;-74
2023/05/01 00:34:48;;;;;;;9.63;3.85;;;;;;;14.26;39.65;101785.56;4966658;28;97984;-74
2023/05/01 00:37:16;;;;;;;10.57;4.65;;;;;;;14.08;39.98;101783.53;4967840;28;97745;-73
2023/05/01 00:39:45;;;;;;;10.73;4.40;;;;;;;13.90;40.87;101778.84;4973792;28;96810;-74
2023/05/01 00:42:11;;;;;;;10.55;4.10;;;;;;;14.14;40.57;101774.50;4967644;28;97682;-73
2023/05/01 00:44:39;;;;;;;13.30;4.47;;;;;;;14.10;40.69;101772.88;4971642;28;99060;-74
2023/05/01 00:47:06;;;;;;;8.07;3.95;;;;;;;13.92;40.83;101769.88;4974206;28;97637;-75
2023/05/01 00:49:33;;;;;;;9.70;4.25;;;;;;;13.87;41.66;101765.66;4965484;28;97000;-74
2023/05/01 00:52:00;;;;;;;11.85;4.57;;;;;;;14.00;41.38;101764.31;4969296;28;98986;-75
2023/05/01 00:54:27;;;;;;;8.45;4.68;;;;;;;14.07;40.82;101765.84;4966757;28;98621;-74
2023/05/01 00:56:54;;;;;;;7.43;4.10;;;;;;;13.93;40.46;101758.34;4967304;28;98552;-74
2023/05/01 00:59:21;;;;;;;11.52;4.00;;;;;;;13.71;41.03;101762.63;4977218;28;97244;-73
2023/05/01 01:01:50;;;;;;;13.85;4.95;;;;;;;13.74;40.62;101761.66;4968128;28;101019;-73
2023/05/01 01:04:17;;;;;;;9.02;3.45;;;;;;;13.91;40.62;101757.50;4969618;28;99670;-72
2023/05/01 01:06:52;;;;;;;10.35;4.07;;;;;;;13.96;41.13;101754.72;4965624;28;96951;-74
2023/05/01 01:09:36;;;;;;;7.28;3.53;;;;;;;13.84;41.05;101748.03;4970048;28;96971;-74
2023/05/01 01:12:09;;;;;;;10.07;3.95;;;;;;;13.94;40.97;101744.13;4973853;28;99404;-73
2023/05/01 01:14:42;;;;;;;13.85;4.30;;;;;;;13.74;41.29;101751.03;4974069;28;101124;-72
2023/05/01 01:17:17;;;;;;;10.80;4.15;;;;;;;13.69;41.01;101745.88;4963911;28;97193;-73
2023/05/01 01:20:28;;;;;;;12.00;4.17;;;;;;;13.63;41.01;101754.03;4968443;28;96692;-73
2023/05/01 01:23:13;;;;;;;11.57;4.03;;;;;;;13.38;42.02;101750.44;4931433;28;98249;-73
2023/05/01 01:25:59;;;;;;;8.60;3.63;;;;;;;13.11;43.87;101747.66;4966075;28;99442;-73
2023/05/01 01:29:03;;;;;;;8.68;3.80;;;;;;;13.02;44.65;101750.59;4967224;28;96934;-73
2023/05/01 01:31:33;;;;;;;8.40;3.85;;;;;;;12.87;45.59;101745.72;4968545;28;97364;-73
2023/05/01 01:34:13;;;;;;;13.05;4.28;;;;;;;12.79;46.19;101747.75;4968266;28;98226;-73
2023/05/01 01:36:42;;;;;;;10.23;3.42;;;;;;;12.65;46.23;101744.63;4962860;28;98997;-72
2023/05/01 01:39:15;;;;;;;9.57;3.58;;;;;;;12.80;45.39;101736.19;4970078;28;97320;-73
2023/05/01 01:41:47;;;;;;;9.43;4.10;;;;;;;12.68;46.28;101741.84;4967135;28;97321;-73
2023/05/01 01:44:20;;;;;;;12.02;4.05;;;;;;;12.63;46.64;101741.13;4971070;28;98820;-73
2023/05/01 01:46:50;;;;;;;7.97;4.05;;;;;;;12.49;46.43;101736.22;4967498;28;98955;-73
2023/05/01 01:49:21;;;;;;;9.68;4.20;;;;;;;12.35;47.54;101731.28;4964236;28;97326;-73
2023/05/01 01:51:49;;;;;;;12.70;4.57;;;;;;;12.59;46.44;101732.41;4971227;28;101061;-72
2023/05/01 01:54:21;;;;;;;13.13;4.40;;;;;;;12.86;44.51;101724.56;4969846;28;99535;-73
2023/05/01 01:56:49;;;;;;;10.52;4.22;;;;;;;12.71;44.89;101729.41;4965392;28;98778;-74
2023/05/01 01:59:17;;;;;;;13.13;4.60;;;;;;;12.70;43.94;101729.44;4968112;28;96811;-73
2023/05/01 02:01:44;;;;;;;11.60;4.43;;;;;;;12.78;43.50;101724.78;4971451;28;96782;-73
2023/05/01 02:04:12;;;;;;;11.05;4.47;;;;;;;12.92;43.25;101714.66;4978829;28;97632;-72
2023/05/01 02:06:41;;;;;;;8.65;4.10;;;;;;;12.62;43.88;101712.88;4971755;28;98800;-72
2023/05/01 02:09:09;;;;;;;9.85;4.32;;;;;;;12.75;43.65;101708.94;4972293;28;96727;-74
2023/05/01 02:11:36;;;;;;;11.48;4.18;;;;;;;12.88;43.36;101715.63;4980847;28;98198;-75
2023/05/01 02:14:05;;;;;;;14.82;4.47;;;;;;;12.67;43.55;101721.56;4971761;28;99147;-72
2023/05/01 02:16:34;;;;;;;12.00;4.22;;;;;;;12.93;43.45;101718.16;4972979;28;99171;-72
2023/05/01 02:19:03;;;;;;;15.10;4.85;;;;;;;12.81;43.08;101713.19;4964178;28;96868;-72
2023/05/01 02:21:31;;;;;;;14.45;5.07;;;;;;;12.87;42.71;101713.88;4973936;28;97206;-74
2023/05/01 02:24:01;;;;;;;13.40;4.70;;;;;;;12.65;43.14;101713.66;4962650;28;99266;-74
2023/05/01 02:26:29;;;;;;;10.35;4.60;;;;;;;12.53;43.19;101708.72;4963877;28;99141;-75
2023/05/01 02:28:55;;;;;;;10.80;4.40;;;;;;;12.60;43.29;101704.13;4964336;28;98154;-74
2023/05/01 02:31:22;;;;;;;14.63;5.03;;;;;;;12.60;43.35;101699.66;4964276;28;97695;-73
2023/05/01 02:33:48;;;;;;;10.57;4.40;;;;;;;12.58;43.66;101698.84;4965327;28;98918;-72
2023/05/01 02:36:14;;;;;;;11.43;4.88;;;;;;;12.66;43.03;101699.50;4966277;28;98418;-74
2023/05/01 02:38:41;;;;;;;12.68;5.25;;;;;;;12.69;43.04;101698.53;4970904;28;96953;-74
2023/05/01 02:41:11;;;;;;;10.00;4.38;;;;;;;12.78;43.04;101687.66;4968899;28;96941;-74
2023/05/01 02:43:41;;;;;;;10.18;4.97;;;;;;;12.81;42.66;101679.59;4972900;28;99488;-74
2023/05/01 02:46:09;;;;;;;11.80;5.20;;;;;;;12.54;43.16;101683.03;4977422;28;99259;-74
2023/05/01 02:48:37;;;;;;;9.45;5.07;;;;;;;12.66;42.88;101672.13;4968364;28;97147;-71
2023/05/01 02:51:04;;;;;;;11.25;4.65;;;;;;;12.63;43.19;101674.84;4969338;28;96966;-74
2023/05/01 02:53:32;;;;;;;13.13;5.00;;;;;;;12.69;42.71;101672.00;4970057;28;99266;-73
2023/05/01 02:55:59;;;;;;;10.70;5.18;;;;;;;12.55;42.86;101675.06;4966691;28;99262;-73
2023/05/01 02:58:31;;;;;;;13.90;5.45;;;;;;;12.40;43.17;101672.88;4966046;28;96990;-73
2023/05/01 03:00:57;;;;;;;11.48;4.93;;;;;;;12.68;42.31;101670.25;4963451;28;97339;-74
2023/05/01 03:03:24;;;;;;;16.20;5.60;;;;;;;12.55;42.54;101669.75;4969678;28;99192;-73
2023/05/01 03:05:50;;;;;;;11.77;5.10;;;;;;;12.50;42.56;101660.19;4965230;28;97603;-73
2023/05/01 03:08:17;;;;;;;13.45;4.97;;;;;;;12.65;42.29;101654.47;4971430;28;96908;-74
2023/05/01 03:10:43;;;;;;;16.27;5.10;;;;;;;12.48;42.82;101656.72;4964351;28;96866;-73
2023/05/01 03:13:10;;;;;;;12.13;5.20;;;;;;;12.25;42.45;101650.31;4971367;28;98996;-73
2023/05/01 03:15:38;;;;;;;10.48;5.32;;;;;;;12.50;42.45;101644.28;4965496;28;101393;-73
2023/05/01 03:18:05;;;;;;;11.45;5.38;;;;;;;12.49;42.15;101653.16;4969619;28;97938;-73
2023/05/01 03:20:31;;;;;;;12.20;5.28;;;;;;;12.54;41.83;101645.94;4962952;28;98758;-73
2023/05/01 03:22:58;;;;;;;14.88;5.70;;;;;;;12.32;42.20;101646.56;4970971;28;100708;-73
2023/05/01 03:25:25;;;;;;;12.90;5.57;;;;;;;12.30;42.45;101643.09;4962155;28;99054;-72
2023/05/01 03:27:51;;;;;;;9.32;5.22;;;;;;;12.51;41.88;101635.44;4967672;28;96792;-72
2023/05/01 03:30:18;;;;;;;13.55;4.72;;;;;;;12.23;42.39;101636.22;4964700;28;96949;-73
2023/05/01 03:32:46;;;;;;;13.60;4.88;;;;;;;12.34;42.11;101638.56;4965969;28;99056;-73
2023/05/01 03:35:12;;;;;;;10.18;5.15;;;;;;;12.32;42.04;101635.97;4966217;28;99139;-72
2023/05/01 03:37:39;;;;;;;10.65;5.35;;;;;;;12.12;42.50;101637.44;4960684;28;99002;-74
2023/05/01 03:40:06;;;;;;;11.45;4.93;;;;;;;12.21;42.16;101640.69;4966300;28;97111;-74
2023/05/01 03:42:33;;;;;;;14.32;4.97;;;;;;;12.31;42.45;101633.38;4966923;28;99261;-73
2023/05/01 03:45:00;;;;;;;8.75;5.13;;;;;;;12.42;41.71;101630.38;4960343;28;98860;-74
2023/05/01 03:47:26;;;;;;;17.90;5.28;;;;;;;12.35;41.99;101630.56;4962162;28;97626;-73
2023/05/01 03:49:54;;;;;;;13.27;4.97;;;;;;;12.47;41.74;101633.81;4963421;28;99461;-74
2023/05/01 03:52:20;;;;;;;9.15;4.65;;;;;;;12.37;41.96;101634.06;4968593;28;99364;-73
2023/05/01 03:54:48;;;;;;;8.98;4.60;;;;;;;12.29;42.31;101641.34;4964248;28;98146;-74
2023/05/01 03:57:15;;;;;;;10.30;4.88;;;;;;;12.15;42.74;101638.22;4969663;28;97732;-73
2023/05/01 03:59:42;;;;;;;15.40;5.10;;;;;;;12.54;42.00;101638.84;4968006;28;96963;-73
2023/05/01 04:02:09;;;;;;;10.15;4.65;;;;;;;12.48;42.11;101635.50;4962020;28;99229;-72
2023/05/01 04:04:35;;;;;;;11.90;4.63;;;;;;;12.45;41.95;101628.53;4964908;28;98796;-72
2023/05/01 04:07:03;;;;;;;10.82;4.63;;;;;;;12.54;41.54;101632.69;4965159;28;97014;-72
2023/05/01 04:09:30;;;;;;;9.48;4.60;;;;;;;12.37;42.12;101626.09;4967765;28;97432;-72
2023/05/01 04:11:56;;;;;;;12.20;4.93;;;;;;;12.56;41.78;101630.84;4963312;28;98244;-72
2023/05/01 04:14:23;;;;;;;9.63;5.07;;;;;;;12.31;42.35;101634.22;4969419;28;98924;-72
2023/05/01 04:16:49;;;;;;;8.20;4.32;;;;;;;12.51;41.70;101624.84;4969428;28;96858;-73
2023/05/01 04:19:16;;;;;;;12.43;5.97;;;;;;;12.46;41.98;101626.75;4967138;28;97825;-74
2023/05/01 04:21:42;;;;;;;12.90;5.10;;;;;;;12.64;41.36;101624.41;4967362;28;99127;-73
2023/05/01 04:24:10;;;;;;;14.82;5.35;;;;;;;12.69;41.28;101624.28;4969162;28;98740;-73
2023/05/01 04:26:37;;;;;;;8.77;4.53;;;;;;;12.73;41.24;101631.25;4973009;28;97102;-74
2023/05/01 04:29:04;;;;;;;15.20;5.55;;;;;;;12.67;41.13;101626.09;4969543;28;96922;-72
2023/05/01 04:31:30;;;;;;;9.93;5.18;;;;;;;12.81;40.93;101618.59;4963542;28;99011;-72
2023/05/01 04:33:57;;;;;;;11.57;5.45;;;;;;;12.93;40.63;101628.81;4968485;28;100763;-72
2023/05/01 04:36:23;;;;;;;10.68;5.00;;;;;;;12.88;41.00;101619.28;4969246;28;97378;-73
2023/05/01 04:38:50;;;;;;;27.58;5.40;;;;;;;12.72;41.30;101619.75;4967503;28;97295;-74
2023/05/01 04:41:18;;;;;;;14.27;5.10;;;;;;;12.93;40.70;101620.03;4967607;28;99257;-73
2023/05/01 04:43:44;;;;;;;14.32;5.13;;;;;;;13.19;39.94;101609.47;4967952;28;98261;-73
2023/05/01 04:46:10;;;;;;;9.38;3.88;;;;;;;13.01;40.04;101605.56;4962056;28;97755;-72
2023/05/01 04:48:37;;;;;;;9.45;4.35;;;;;;;13.01;39.86;101616.19;4969074;28;97022;-74
2023/05/01 04:51:03;;;;;;;10.32;4.15;;;;;;;12.93;39.64;101614.72;4968359;28;99382;-73
2023/05/01 04:53:30;;;;;;;10.98;3.70;;;;;;;13.17;39.13;101606.00;4965638;28;100907;-73
2023/05/01 04:55:57;;;;;;;11.93;4.82;;;;;;;12.91;39.55;101608.56;4964397;28;97261;-74
2023/05/01 04:58:25;;;;;;;9.60;4.05;;;;;;;13.23;39.05;101610.22;4967327;28;97159;-74
2023/05/01 05:00:51;;;;;;;9.77;4.05;;;;;;;13.21;39.02;101604.97;4961693;28;98924;-74
2023/05/01 05:03:18;;;;;;;12.20;4.65;;;;;;;13.11;39.11;101607.03;4967966;28;97775;-74
2023/05/01 05:05:45;;;;;;;6.80;4.43;;;;;;;13.32;38.72;101600.19;4965843;28;98712;-73
2023/05/01 05:08:11;;;;;;;12.13;4.60;;;;;;;13.48;38.31;101606.69;4958893;28;98522;-74
2023/05/01 05:10:38;;;;;;;13.48;5.25;;;;;;;13.39;38.76;101601.69;4963635;28;100155;-73
2023/05/01 05:13:04;;;;;;;9.23;4.05;;;;;;;13.76;37.85;101603.09;4967163;28;101476;-74
2023/05/01 05:15:32;;;;;;;9.55;3.95;;;;;;;13.58;38.05;101604.63;4967503;28;96873;-73
2023/05/01 05:17:58;;;;;;;10.02;4.22;;;;;;;13.77;38.13;101604.84;4967829;28;96866;-73
2023/05/01 05:20:25;;;;;;;8.75;4.85;;;;;;;13.95;37.14;101591.78;4963064;28;102481;-74
2023/05/01 05:22:52;;;;;;;12.30;4.40;;;;;;;13.98;36.87;101595.25;4969113;28;99585;-74
2023/05/01 05:25:19;;;;;;;7.93;4.43;;;;;;;14.07;36.94;101597.56;4966612;28;96827;-74
2023/05/01 05:27:45;;;;;;;10.30;4.40;;;;;;;14.13;36.90;101594.66;4963878;28;96928;-74
2023/05/01 05:30:12;;;;;;;7.93;4.22;;;;;;;14.15;36.80;101587.50;4968094;28;99115;-74
2023/05/01 05:32:40;;;;;;;9.75;4.22;;;;;;;14.20;36.95;101585.53;4968471;28;98782;-75
2023/05/01 05:35:07;;;;;;;10.77;4.20;;;;;;;14.61;36.14;101582.22;4969898;28;96912;-76
2023/05/01 05:37:33;;;;;;;11.75;4.65;;;;;;;15.27;35.11;101574.25;4967516;28;96869;-75
2023/05/01 05:40:00;;;;;;;7.13;4.07;;;;;;;15.50;34.44;101569.66;4966919;28;100350;-75
2023/05/01 05:42:26;;;;;;;8.02;4.63;;;;;;;15.35;34.39;101575.66;4970125;28;99338;-74
2023/05/01 05:44:53;;;;;;;12.88;4.65;;;;;;;15.38;34.59;101575.50;4966768;28;96826;-73
2023/05/01 05:47:19;;;;;;;8.30;3.78;;;;;;;15.22;34.53;101570.91;4970593;28;97058;-72
2023/05/01 05:49:47;;;;;;;7.35;4.20;;;;;;;15.39;34.33;101566.59;4966171;28;101484;-70
2023/05/01 05:52:13;;;;;;;8.55;4.53;;;;;;;15.26;34.46;101568.03;4968300;28;99239;-73
2023/05/01 05:54:40;;;;;;;8.38;3.88;;;;;;;15.46;34.11;101556.56;4968078;28;97074;-74
2023/05/01 05:57:06;;;;;;;10.93;4.32;;;;;;;15.46;33.94;101562.75;4965964;28;97180;-72
2023/05/01 05:59:33;;;;;;;13.30;4.28;;;;;;;15.84;33.42;101560.22;4965635;28;98133;-70
2023/05/01 06:01:59;;;;;;;10.55;4.70;;;;;;;15.65;33.83;101560.19;4956550;28;101802;-72
2023/05/01 06:04:26;;;;;;;7.47;3.80;;;;;;;15.72;33.75;101561.66;4961931;28;99064;-72
2023/05/01 06:06:54;;;;;;;10.68;4.50;;;;;;;15.66;33.23;101558.38;4964865;28;97671;-72
2023/05/01 06:09:21;;;;;;;11.10;4.88;;;;;;;15.66;33.40;101558.38;4965525;28;97563;-74
2023/05/01 06:11:47;;;;;;;7.72;3.85;;;;;;;15.64;33.24;101557.56;4967559;28;100107;-74
2023/05/01 06:14:14;;;;;;;11.50;4.50;;;;;;;15.80;33.31;101556.00;4967701;28;97288;-73
2023/05/01 06:16:40;;;;;;;11.15;5.13;;;;;;;16.00;32.82;101550.63;4966987;28;101532;-73
2023/05/01 06:19:09;;;;;;;10.70;4.30;;;;;;;16.04;32.59;101549.53;4968206;28;99087;-73
2023/05/01 06:21:35;;;;;;;9.40;4.00;;;;;;;16.30;32.26;101565.22;4970200;28;98667;-72
2023/05/01 06:24:03;;;;;;;9.57;4.53;;;;;;;16.40;32.22;101563.00;4960655;28;97605;-74
2023/05/01 06:26:30;;;;;;;8.50;4.47;;;;;;;16.54;32.02;101559.69;4958084;28;97642;-73
2023/05/01 06:28:56;;;;;;;8.18;4.30;;;;;;;16.41;31.98;101553.19;4964686;28;100295;-72
2023/05/01 06:31:23;;;;;;;8.70;3.90;;;;;;;16.54;32.00;101557.03;4960450;28;99040;-72
2023/05/01 06:33:49;;;;;;;8.55;4.45;;;;;;;16.85;31.91;101553.78;4959231;28;98850;-74
2023/05/01 06:36:16;;;;;;;10.90;3.90;;;;;;;17.44;30.77;101557.00;4963283;28;97750;-73
2023/05/01 06:38:47;;;;;;;8.75;3.53;;;;;;;18.11;29.92;101549.94;4959263;28;98043;-73
2023/05/01 06:41:15;;;;;;;10.55;3.65;;;;;;;18.19;29.42;101553.03;4957130;28;98902;-73
2023/05/01 06:43:41;;;;;;;8.43;3.70;;;;;;;18.09;29.38;101552.69;4964123;28;100691;-72
2023/05/01 06:46:08;;;;;;;6.72;3.60;;;;;;;17.67;29.82;101550.47;4966734;28;96754;-72
2023/05/01 06:48:34;;;;;;;7.20;3.50;;;;;;;17.65;29.95;101547.03;4960232;28;99568;-72
2023/05/01 06:51:00;;;;;;;9.32;3.50;;;;;;;17.88;29.72;101546.69;4964835;28;98770;-72
2023/05/01 06:53:27;;;;;;;7.20;3.28;;;;;;;18.11;29.63;101545.47;4961606;28;99057;-72
2023/05/01 06:55:53;;;;;;;9.48;3.97;;;;;;;18.38;28.58;101545.72;4954552;28;97471;-73
2023/05/01 06:58:21;;;;;;;8.10;3.75;;;;;;;18.23;28.99;101544.78;4964413;28;99017;-72
2023/05/01 07:00:47;;;;;;;7.88;3.83;;;;;;;18.45;28.75;101546.25;4962892;28;98961;-72
2023/05/01 07:03:14;;;;;;;17.25;3.72;;;;;;;18.44;28.69;101545.41;4960205;28;97717;-73
2023/05/01 07:05:40;;;;;;;9.80;3.55;;;;;;;18.22;28.86;101542.19;4961167;28;97419;-73
2023/05/01 07:08:08;;;;;;;11.05;3.63;;;;;;;18.07;29.19;101537.66;4963666;28;98809;-73
2023/05/01 07:10:35;;;;;;;10.32;3.35;;;;;;;18.20;29.02;101534.25;4964875;28;98960;-73
2023/05/01 07:13:01;;;;;;;6.88;3.38;;;;;;;18.57;28.96;101537.59;4961960;28;96921;-75
2023/05/01 07:15:29;;;;;;;8.80;3.17;;;;;;;18.51;28.51;101530.72;4964938;28;97934;-73
2023/05/01 07:17:57;;;;;;;7.60;3.35;;;;;;;18.95;28.04;101535.41;4965460;28;101404;-74
2023/05/01 07:20:23;;;;;;;8.93;2.95;;;;;;;18.93;28.42;101524.78;4958257;28;101838;-73
2023/05/01 07:22:49;;;;;;;6.43;3.00;;;;;;;19.24;27.40;101529.19;4958653;28;97181;-73
2023/05/01 07:25:16;;;;;;;8.70;3.08;;;;;;;19.38;27.07;101531.06;4962741;28;97979;-73
2023/05/01 07:28:03;;;;;;;10.38;3.92;;;;;;;19.29;27.33;101528.94;4963026;28;98898;-75
2023/05/01 07:30:32;;;;;;;7.88;3.15;;;;;;;19.49;27.27;101523.28;4963072;28;99205;-73
2023/05/01 07:33:01;;;;;;;7.03;3.63;;;;;;;19.52;27.12;101515.03;4964547;28;97001;-73
2023/05/01 07:35:28;;;;;;;5.72;2.45;;;;;;;19.42;27.56;101514.72;4965200;28;96854;-75
2023/05/01 07:37:54;;;;;;;8.00;3.05;;;;;;;19.54;27.11;101514.97;4959730;28;98335;-74
2023/05/01 07:40:21;;;;;;;8.88;3.38;;;;;;;19.72;26.93;101508.47;4965982;28;98965;-74
2023/05/01 07:42:47;;;;;;;9.57;3.70;;;;;;;19.50;27.02;101508.91;4969694;28;96912;-74
2023/05/01 07:45:14;;;;;;;9.77;3.10;;;;;;;19.40;27.46;101500.53;4965433;28;97107;-74
2023/05/01 07:47:42;;;;;;;8.45;2.95;;;;;;;19.04;27.71;101500.91;4962981;28;100664;-73
2023/05/01 07:50:10;;;;;;;10.68;3.20;;;;;;;18.99;28.27;101511.03;4967808;28;98817;-73
2023/05/01 07:52:37;;;;;;;7.30;2.90;;;;;;;19.13;28.15;101496.81;4963988;28;97301;-74
2023/05/01 07:55:04;;;;;;;6.72;2.95;;;;;;;19.27;27.94;101499.56;4960491;28;97548;-75
2023/05/01 07:57:32;;;;;;;9.75;2.72;;;;;;;19.52;27.52;101500.78;4964049;28;97793;-75
2023/05/01 07:59:59;;;;;;;8.77;2.67;;;;;;;19.45;27.60;101494.91;4958863;28;98957;-74
2023/05/01 08:02:25;;;;;;;9.63;3.13;;;;;;;19.54;27.44;101488.16;4955079;28;98176;-75
2023/05/01 08:04:53;;;;;;;9.25;3.22;;;;;;;19.24;27.48;101486.31;4960773;28;97116;-73
2023/05/01 08:07:20;;;;;;;9.02;3.17;;;;;;;19.44;27.50;101486.00;4956164;28;99079;-74
2023/05/01 08:09:46;;;;;;;8.48;2.72;;;;;;;19.77;27.27;101482.22;4956482;28;98997;-75
2023/05/01 08:12:13;;;;;;;7.40;2.88;;;;;;;19.84;26.86;101479.06;4962495;28;96997;-74
2023/05/01 08:14:39;;;;;;;10.52;2.85;;;;;;;19.90;26.85;101483.19;4954992;28;98676;-75
2023/05/01 08:17:06;;;;;;;6.32;2.55;;;;;;;20.18;27.01;101477.81;4960114;28;101936;-75
2023/05/01 08:19:33;;;;;;;9.27;2.95;;;;;;;20.03;26.57;101481.44;4958303;28;98988;-74
2023/05/01 08:22:00;;;;;;;8.82;2.88;;;;;;;20.40;26.47;101473.78;4957969;28;97473;-74
2023/05/01 08:24:27;;;;;;;6.65;2.40;;;;;;;20.11;26.85;101470.25;4957904;28;97227;-74
2023/05/01 08:26:53;;;;;;;7.60;2.97;;;;;;;20.29;26.98;101466.38;4973281;28;99591;-75
2023/05/01 08:29:19;;;;;;;9.85;2.75;;;;;;;20.52;26.48;101467.59;4958551;28;98789;-75
2023/05/01 08:31:46;;;;;;;10.65;2.80;;;;;;;20.28;26.50;101467.34;4965527;28;96842;-75
2023/05/01 08:34:16;;;;;;;8.38;2.70;;;;;;;20.68;26.50;101465.63;4969779;28;96854;-75
2023/05/01 08:36:42;;;;;;;5.55;2.75;;;;;;;21.14;25.91;101457.16;4966785;28;97693;-74
2023/05/01 08:39:10;;;;;;;6.72;2.60;;;;;;;21.24;25.08;101471.72;4959898;28;99334;-73
2023/05/01 08:41:38;;;;;;;4.70;2.25;;;;;;;21.28;25.32;101467.84;4966598;28;99126;-72
2023/05/01 08:44:07;;;;;;;7.82;2.50;;;;;;;21.28;25.12;101459.78;4958864;28;97142;-74
2023/05/01 08:46:44;;;;;;;8.85;2.75;;;;;;;21.16;25.01;101463.31;4961660;28;99327;-73
2023/05/01 08:49:14;;;;;;;8.55;2.75;;;;;;;21.34;25.00;101451.28;4958895;28;98872;-74
2023/05/01 08:51:42;;;;;;;7.35;2.70;;;;;;;21.02;25.24;101448.97;4965443;28;97270;-74
2023/05/01 08:54:11;;;;;;;8.02;2.85;;;;;;;21.55;24.55;101439.06;4959989;28;97256;-73
2023/05/01 08:56:38;;;;;;;12.63;3.28;;;;;;;21.33;24.75;101438.84;4977716;28;99143;-73
2023/05/01 08:59:05;;;;;;;5.13;2.28;;;;;;;21.33;24.63;101434.31;4966384;28;99029;-74
2023/05/01 09:01:33;;;;;;;6.28;2.50;;;;;;;21.01;24.56;101441.88;4967716;28;96862;-73
2023/05/01 09:04:02;;;;;;;6.43;2.13;;;;;;;21.28;24.49;101439.16;4966526;28;97119;-74
2023/05/01 09:06:31;;;;;;;5.95;2.45;;;;;;;20.96;24.53;101435.94;4966541;28;101757;-74
2023/05/01 09:08:57;;;;;;;5.30;2.10;;;;;;;20.98;25.02;101430.47;4967892;28;97714;-74
2023/05/01 09:11:26;;;;;;;11.75;2.30;;;;;;;20.95;24.15;101428.84;4967677;28;97635;-75
2023/05/01 09:13:53;;;;;;;5.97;2.00;;;;;;;21.14;24.61;101419.53;4966744;28;96940;-74
2023/05/01 09:16:21;;;;;;;7.32;2.17;;;;;;;21.11;24.18;101419.75;4977484;28;99017;-74
2023/05/01 09:18:48;;;;;;;5.90;1.95;;;;;;;21.14;24.20;101406.94;4967078;28;99155;-74
2023/05/01 09:21:15;;;;;;;7.13;2.55;;;;;;;20.82;24.05;101398.41;4967941;28;97014;-74
2023/05/01 09:23:41;;;;;;;6.80;2.05;;;;;;;20.87;24.08;101408.88;4967512;28;97377;-75
2023/05/01 09:26:08;;;;;;;3.17;1.98;;;;;;;20.62;23.84;101407.81;4969279;28;98948;-75
2023/05/01 09:28:44;;;;;;;5.97;2.03;;;;;;;20.98;24.22;101404.47;4970200;28;99757;-74
2023/05/01 09:31:27;;;;;;;8.65;2.38;;;;;;;20.99;24.49;101391.91;4962008;28;96834;-73
2023/05/01 09:33:54;;;;;;;4.93;2.22;;;;;;;21.19;24.02;101387.88;4967226;28;97252;-73
2023/05/01 09:36:23;;;;;;;8.57;2.40;;;;;;;21.17;24.38;101385.28;4968915;28;97318;-74
2023/05/01 09:38:50;;;;;;;8.77;2.22;;;;;;;21.34;24.26;101384.97;4969165;28;101925;-73
2023/05/01 09:41:22;;;;;;;6.30;1.77;;;;;;;21.35;23.62;101384.00;4969646;28;96871;-73
2023/05/01 09:43:54;;;;;;;5.55;1.95;;;;;;;21.08;24.00;101378.69;4969807;28;96894;-74
2023/05/01 09:46:22;;;;;;;8.05;2.30;;;;;;;21.21;24.25;101375.16;4969260;28;98414;-74
2023/05/01 09:48:58;;;;;;;5.30;2.08;;;;;;;21.03;24.72;101369.22;4970599;28;98389;-74
2023/05/01 09:51:26;;;;;;;4.78;2.08;;;;;;;21.45;24.33;101363.56;4972566;28;98417;-73
2023/05/01 09:53:55;;;;;;;6.38;2.03;;;;;;;21.67;23.81;101354.81;4970393;28;97355;-74
2023/05/01 09:56:22;;;;;;;5.97;2.72;;;;;;;21.80;24.18;101358.31;4969005;28;97817;-73
2023/05/01 09:58:55;;;;;;;6.13;2.22;;;;;;;21.71;23.55;101353.63;4968288;28;97705;-76
2023/05/01 10:01:43;;;;;;;5.50;2.00;;;;;;;22.21;24.08;101354.47;4967071;28;96924;-76
2023/05/01 10:04:12;;;;;;;8.13;2.42;;;;;;;21.98;23.77;101364.25;4969574;28;97000;-75
2023/05/01 10:06:44;;;;;;;4.93;2.42;;;;;;;21.97;23.85;101353.59;4969006;28;101557;-74
2023/05/01 10:09:15;;;;;;;6.18;2.35;;;;;;;21.76;23.35;101351.47;4964213;28;99731;-74
2023/05/01 10:11:50;;;;;;;5.20;2.33;;;;;;;21.67;24.17;101344.03;4964578;28;96973;-76
2023/05/01 10:14:19;;;;;;;6.40;2.90;;;;;;;21.95;24.19;101334.81;4964217;28;97175;-75
2023/05/01 10:16:46;;;;;;;6.75;2.65;;;;;;;21.97;24.29;101340.13;4969667;28;99030;-75
2023/05/01 10:19:20;;;;;;;3.97;2.33;;;;;;;21.92;24.29;101337.75;4970599;28;98197;-74
2023/05/01 10:21:46;;;;;;;6.00;2.72;;;;;;;21.81;24.75;101333.16;4966128;28;97262;-73
2023/05/01 10:24:15;;;;;;;7.63;3.03;;;;;;;22.00;24.90;101335.38;4961863;28;97969;-74
2023/05/01 10:26:42;;;;;;;6.68;2.80;;;;;;;21.76;24.79;101329.94;4969803;28;98152;-74
2023/05/01 10:29:09;;;;;;;7.43;2.60;;;;;;;21.75;24.71;101325.53;4964762;28;99078;-73
2023/05/01 10:31:37;;;;;;;7.43;2.88;;;;;;;22.08;24.80;101318.66;4970262;28;98542;-74
2023/05/01 10:34:04;;;;;;;7.97;2.80;;;;;;;22.25;24.32;101320.97;4961113;28;97377;-73
2023/05/01 10:36:36;;;;;;;7.68;2.85;;;;;;;22.12;24.76;101314.78;4973691;28;99585;-74
2023/05/01 10:39:03;;;;;;;14.10;3.38;;;;;;;22.35;24.44;101311.22;4966566;28;103772;-74
2023/05/01 10:42:02;;;;;;;9.30;2.65;;;;;;;22.43;24.61;101307.94;4973232;28;97161;-73
2023/05/01 10:44:28;;;;;;;5.63;2.58;;;;;;;22.25;24.17;101297.56;4967355;28;97155;-75
2023/05/01 10:46:56;;;;;;;5.95;3.05;;;;;;;22.33;24.24;101304.22;4964846;28;99134;-76
2023/05/01 10:49:23;;;;;;;9.25;3.03;;;;;;;22.13;24.49;101284.19;4967352;28;100768;-74
2023/05/01 10:51:59;;;;;;;7.97;2.70;;;;;;;21.97;24.79;101283.63;4965922;28;97072;-74
2023/05/01 10:54:26;;;;;;;7.95;2.65;;;;;;;21.81;25.30;101282.03;4968949;28;96943;-73
2023/05/01 10:56:54;;;;;;;6.18;3.20;;;;;;;21.94;24.83;101279.28;4970110;28;98472;-74
2023/05/01 10:59:21;;;;;;;9.20;3.00;;;;;;;22.32;24.98;101273.75;4964518;28;98157;-74
2023/05/01 11:01:50;;;;;;;5.13;2.60;;;;;;;22.20;24.62;101271.97;4965106;28;97261;-74
2023/05/01 11:04:52;;;;;;;10.07;3.30;;;;;;;22.19;24.94;101270.25;4966565;28;97328;-74
2023/05/01 11:07:22;;;;;;;8.57;2.92;;;;;;;22.00;25.05;101259.16;4969115;28;98975;-73
2023/05/01 11:09:53;;;;;;;8.80;3.00;;;;;;;22.07;24.76;101263.13;4967320;28;102666;-74
2023/05/01 11:12:49;;;;;;;9.48;3.20;;;;;;;22.20;24.65;101254.00;4967509;28;96759;-75
2023/05/01 11:15:30;;;;;;;5.97;2.65;;;;;;;22.38;24.62;101243.69;4968967;28;96932;-74
2023/05/01 11:17:57;;;;;;;7.13;3.10;;;;;;;22.50;24.23;101248.13;4967721;28;101981;-74
2023/05/01 11:20:48;;;;;;;6.70;3.03;;;;;;;22.41;24.09;101235.34;4970638;28;99246;-74
2023/05/01 11:23:19;;;;;;;4.90;2.78;;;;;;;22.28;24.40;101237.28;4964577;28;97162;-74
2023/05/01 11:25:47;;;;;;;10.18;2.95;;;;;;;22.36;24.23;101231.31;4968684;28;96865;-75
2023/05/01 11:28:19;;;;;;;8.55;3.35;;;;;;;22.45;24.10;101228.75;4964417;28;99037;-74